Time;durP1;ratioP1;P1;durP2;ratioP2;P2;SDS_P1;SDS_P2;PMS_P1;PMS_P2;Temp;Humidity;BMP_temperature;BMP_pressure;BME280_temperature;BME280_humidity;BME280_pressure;Samples;Min_cycle;Max_cycle;Signal;HPM_P1;HPM_P2
2022/05/12 00:01:58;;;;;;;13.17;6.87;;;;;;;17.20;71.85;99898.09;5134559;27;20740;-62
2022/05/12 00:04:25;;;;;;;45.63;10.00;;;;;;;17.21;71.78;99906.94;5134874;27;20192;-64
2022/05/12 00:06:52;;;;;;;38.70;9.50;;;;;;;17.18;71.92;99905.53;5134962;27;20218;-64
2022/05/12 00:09:19;;;;;;;51.97;9.20;;;;;;;17.12;72.47;99903.78;5134483;27;20191;-64
2022/05/12 00:11:48;;;;;;;18.90;7.97;;;;;;;17.05;72.89;99904.91;5134764;27;20247;-64
2022/05/12 00:14:15;;;;;;;22.83;8.17;;;;;;;16.98;73.15;99893.47;5134841;27;20190;-64
2022/05/12 00:16:42;;;;;;;18.23;7.30;;;;;;;16.93;73.46;99901.34;5134614;27;20202;-64
2022/05/12 00:19:09;;;;;;;7.40;6.13;;;;;;;16.93;73.92;99902.19;5135124;27;20194;-62
2022/05/12 00:21:36;;;;;;;8.80;6.27;;;;;;;16.98;73.88;99904.19;5135358;27;20191;-61
2022/05/12 00:24:02;;;;;;;8.37;7.47;;;;;;;16.99;73.75;99903.16;5134526;27;20190;-61
2022/05/12 00:26:31;;;;;;;13.90;6.90;;;;;;;16.93;73.85;99902.19;5134927;27;20273;-61
2022/05/12 00:29:01;;;;;;;11.87;7.37;;;;;;;16.89;74.21;99897.47;5134056;27;20747;-62
2022/05/12 00:31:29;;;;;;;12.17;6.67;;;;;;;16.91;74.44;99895.41;5133431;27;20247;-63
2022/05/12 00:33:56;;;;;;;16.70;7.33;;;;;;;16.91;75.18;99893.53;5134574;27;20192;-61
2022/05/12 00:36:23;;;;;;;16.00;7.00;;;;;;;16.95;75.17;99900.06;5133917;27;20198;-61
2022/05/12 00:38:50;;;;;;;15.50;7.50;;;;;;;16.86;74.57;99906.81;5134182;27;20189;-61
2022/05/12 00:41:17;;;;;;;40.17;10.67;;;;;;;16.83;74.55;99917.19;5133817;27;20190;-61
2022/05/12 00:43:48;;;;;;;59.27;12.70;;;;;;;16.84;74.53;99908.09;5134356;27;20254;-61
2022/05/12 00:46:17;;;;;;;48.80;10.57;;;;;;;16.77;74.55;99901.97;5133643;27;20682;-61
2022/05/12 00:48:45;;;;;;;19.87;8.43;;;;;;;16.74;74.74;99902.44;5133961;27;20221;-61
2022/05/12 00:51:15;;;;;;;32.30;9.13;;;;;;;16.85;74.46;99905.19;5133642;27;20190;-61
2022/05/12 00:53:43;;;;;;;22.07;8.50;;;;;;;16.90;74.04;99912.56;5133668;27;20247;-61
2022/05/12 00:56:13;;;;;;;14.13;8.10;;;;;;;16.92;73.75;99905.91;5133870;27;20196;-61
2022/05/12 00:58:40;;;;;;;17.30;7.43;;;;;;;16.91;73.62;99906.13;5134397;27;20186;-61
2022/05/12 01:01:10;;;;;;;19.13;6.97;;;;;;;16.89;73.98;99910.91;5134081;27;20252;-61
2022/05/12 01:03:40;;;;;;;9.70;6.47;;;;;;;16.92;73.97;99910.47;5133458;27;20654;-61
2022/05/12 01:06:09;;;;;;;11.83;6.40;;;;;;;16.84;73.25;99908.09;5134512;27;20634;-61
2022/05/12 01:08:36;;;;;;;7.07;5.40;;;;;;;16.87;72.99;99902.28;5133710;27;20219;-61
2022/05/12 01:11:07;;;;;;;7.40;5.07;;;;;;;16.88;72.36;99909.28;5133341;27;20656;-61
2022/05/12 01:13:34;;;;;;;5.20;4.90;;;;;;;16.89;71.94;99917.09;5133305;27;20181;-62
2022/05/12 01:16:03;;;;;;;5.17;4.77;;;;;;;16.91;71.09;99916.88;5133796;27;20597;-61
2022/05/12 01:18:31;;;;;;;5.17;4.73;;;;;;;16.92;70.77;99923.88;5133763;27;20284;-61
2022/05/12 01:21:01;;;;;;;5.60;5.20;;;;;;;16.95;71.34;99923.44;5133177;27;20194;-61
2022/05/12 01:23:31;;;;;;;6.60;5.77;;;;;;;16.89;71.98;99921.63;5133381;27;20194;-61
2022/05/12 01:26:01;;;;;;;5.13;4.80;;;;;;;16.84;72.73;99921.50;5134109;27;20189;-61
2022/05/12 01:28:29;;;;;;;6.00;5.57;;;;;;;16.83;72.66;99927.91;5133394;27;20182;-61
2022/05/12 01:30:57;;;;;;;6.27;5.83;;;;;;;16.82;72.66;99928.97;5133345;27;20283;-60
2022/05/12 01:33:24;;;;;;;5.87;4.93;;;;;;;16.80;72.59;99937.25;5132958;27;20190;-60
2022/05/12 01:35:51;;;;;;;5.23;4.70;;;;;;;16.77;72.42;99934.16;5133273;27;20262;-60
2022/05/12 01:38:18;;;;;;;5.30;4.70;;;;;;;16.75;72.17;99930.91;5133500;27;20245;-61
2022/05/12 01:40:46;;;;;;;8.03;5.03;;;;;;;16.76;71.66;99927.16;5133538;27;20194;-61
2022/05/12 01:43:14;;;;;;;7.67;4.70;;;;;;;16.72;71.45;99928.66;5133910;27;20190;-61
2022/05/12 01:45:41;;;;;;;5.67;4.90;;;;;;;16.67;71.73;99928.53;5133228;27;20193;-60
2022/05/12 01:48:10;;;;;;;7.23;4.57;;;;;;;16.65;71.45;99931.44;5132944;27;20229;-61
2022/05/12 01:50:40;;;;;;;5.60;5.03;;;;;;;16.67;71.01;99928.53;5133455;27;20253;-61
2022/05/12 01:53:09;;;;;;;4.80;4.40;;;;;;;16.70;70.86;99928.09;5133668;27;20266;-62
2022/05/12 01:55:36;;;;;;;4.73;4.17;;;;;;;16.71;70.36;99935.09;5133274;27;20205;-61
2022/05/12 01:58:04;;;;;;;4.50;4.10;;;;;;;16.73;70.53;99932.97;5133288;27;20199;-61
2022/05/12 02:00:32;;;;;;;4.67;4.27;;;;;;;16.68;70.42;99935.53;5132976;27;20539;-61
2022/05/12 02:03:00;;;;;;;4.23;4.00;;;;;;;16.66;71.21;99934.94;5132685;27;20739;-61
2022/05/12 02:05:28;;;;;;;4.50;4.20;;;;;;;16.61;71.26;99945.53;5133138;27;20197;-61
2022/05/12 02:07:55;;;;;;;5.17;4.67;;;;;;;16.57;71.52;99941.66;5132813;27;20352;-61
2022/05/12 02:10:24;;;;;;;4.90;4.50;;;;;;;16.56;71.31;99950.72;5132923;27;20198;-64
2022/05/12 02:12:51;;;;;;;8.93;4.63;;;;;;;16.48;71.10;99934.91;5133759;27;20189;-63
2022/05/12 02:15:21;;;;;;;4.50;4.10;;;;;;;16.47;70.90;99949.38;5132792;27;20218;-63
2022/05/12 02:17:49;;;;;;;6.37;4.10;;;;;;;16.50;70.64;99954.31;5132997;27;20205;-62
2022/05/12 02:20:17;;;;;;;5.00;4.23;;;;;;;16.44;70.49;99965.91;5133386;27;20190;-63
2022/05/12 02:22:44;;;;;;;5.50;4.07;;;;;;;16.35;71.36;99959.16;5132757;27;20258;-62
2022/05/12 02:25:11;;;;;;;4.53;4.33;;;;;;;16.36;71.82;99958.94;5132430;27;20239;-62
2022/05/12 02:27:42;;;;;;;4.63;4.20;;;;;;;16.31;71.48;99957.97;5132309;27;20251;-62
2022/05/12 02:30:11;;;;;;;7.73;4.80;;;;;;;16.32;71.39;99967.66;5133249;27;20201;-62
2022/05/12 02:32:39;;;;;;;5.00;4.53;;;;;;;16.30;71.77;99969.75;5132407;27;20193;-63
2022/05/12 02:35:07;;;;;;;6.70;4.20;;;;;;;16.25;71.66;99966.91;5132655;27;20189;-62
2022/05/12 02:37:33;;;;;;;5.00;4.50;;;;;;;16.22;72.03;99978.06;5132286;27;20194;-62
2022/05/12 02:40:00;;;;;;;5.87;4.73;;;;;;;16.11;73.13;99979.59;5133167;27;20186;-62
2022/05/12 02:42:27;;;;;;;7.03;4.67;;;;;;;16.07;72.52;99975.72;5132843;27;20193;-62
2022/05/12 02:44:53;;;;;;;6.83;5.10;;;;;;;16.00;72.70;99982.19;5132614;27;20246;-62
2022/05/12 02:47:20;;;;;;;5.57;5.17;;;;;;;15.96;73.69;99979.09;5132127;27;20274;-62
2022/05/12 02:49:48;;;;;;;11.90;6.13;;;;;;;15.86;74.02;99979.59;5133174;27;20232;-62
2022/05/12 02:52:15;;;;;;;5.97;5.37;;;;;;;15.76;74.01;99989.16;5132163;27;20187;-62
2022/05/12 02:54:42;;;;;;;10.33;6.17;;;;;;;15.69;74.67;99989.19;5135048;27;20786;-62
2022/05/12 02:57:08;;;;;;;8.50;6.23;;;;;;;15.57;75.19;99964.16;5136268;27;20190;-63
2022/05/12 02:59:37;;;;;;;9.90;6.10;;;;;;;15.69;74.91;99983.84;5135846;27;20195;-64
2022/05/12 03:02:05;;;;;;;7.57;6.70;;;;;;;15.57;75.23;99985.56;5136364;27;20198;-62
2022/05/12 03:04:33;;;;;;;12.07;6.77;;;;;;;15.49;75.71;99985.03;5135751;27;20566;-63
2022/05/12 03:07:01;;;;;;;13.73;6.83;;;;;;;15.38;75.98;99991.88;5135640;27;20218;-63
2022/05/12 03:09:29;;;;;;;8.93;7.17;;;;;;;15.38;76.68;99997.25;5136021;27;20573;-63
2022/05/12 03:11:56;;;;;;;12.73;7.27;;;;;;;15.43;76.63;99999.25;5135606;27;20662;-62
2022/05/12 03:14:23;;;;;;;9.83;7.37;;;;;;;15.44;76.54;100001.72;5135536;27;20654;-62
2022/05/12 03:16:52;;;;;;;14.20;8.13;;;;;;;15.46;76.72;100004.19;5135893;27;20190;-62
2022/05/12 03:19:19;;;;;;;13.90;7.90;;;;;;;15.40;76.92;100008.53;5136852;27;20190;-62
2022/05/12 03:21:46;;;;;;;13.27;7.40;;;;;;;15.34;76.94;100006.75;5135798;27;20242;-63
2022/05/12 03:24:15;;;;;;;15.17;8.40;;;;;;;15.37;77.38;100005.47;5135335;27;20284;-62
2022/05/12 03:26:41;;;;;;;10.07;7.17;;;;;;;15.36;77.68;100006.53;5135586;27;20702;-62
2022/05/12 03:29:08;;;;;;;10.43;7.70;;;;;;;15.43;76.96;100005.44;5135283;27;20220;-62
2022/05/12 03:31:36;;;;;;;11.90;7.07;;;;;;;15.47;76.90;100003.97;5135441;27;20190;-63
2022/05/12 03:34:03;;;;;;;16.50;6.70;;;;;;;15.58;76.35;100007.84;5135626;27;20198;-62
2022/05/12 03:36:33;;;;;;;18.00;7.43;;;;;;;15.65;75.90;100008.63;5135614;27;20281;-63
2022/05/12 03:39:00;;;;;;;12.40;6.90;;;;;;;15.73;75.40;100006.47;5136288;27;20181;-62
2022/05/12 03:41:28;;;;;;;7.23;6.40;;;;;;;15.73;75.13;100006.47;5135268;27;20190;-62
2022/05/12 03:46:38;;;;;;;8.60;6.70;;;;;;;15.89;74.02;100016.69;5135651;27;20264;-62
2022/05/12 03:49:05;;;;;;;8.37;6.87;;;;;;;15.91;73.96;100013.78;5135575;27;20225;-62
2022/05/12 03:51:32;;;;;;;10.77;6.97;;;;;;;16.02;73.92;100014.94;5135251;27;20206;-62
2022/05/12 03:53:59;;;;;;;9.17;7.50;;;;;;;16.12;73.76;100015.28;5135435;27;20190;-62
2022/05/12 03:56:26;;;;;;;15.07;8.33;;;;;;;16.73;71.99;100018.81;5135006;27;20246;-63
2022/05/12 03:58:54;;;;;;;11.10;7.80;;;;;;;17.51;69.16;100025.97;5135345;27;20193;-63
2022/05/12 04:01:20;;;;;;;11.43;7.30;;;;;;;18.21;67.01;100025.13;5135531;27;20238;-63
2022/05/12 04:03:47;;;;;;;20.33;5.97;;;;;;;18.92;64.44;100039.16;5134823;27;20239;-65
2022/05/12 04:06:14;;;;;;;19.37;6.67;;;;;;;19.91;59.72;100050.34;5135135;27;20240;-66
2022/05/12 04:08:41;;;;;;;18.37;7.10;;;;;;;21.23;56.28;100058.34;5134575;27;20222;-67
2022/05/12 04:11:08;;;;;;;21.63;7.40;;;;;;;22.23;51.51;100062.19;5134363;27;20190;-68
2022/05/12 04:13:34;;;;;;;10.53;5.60;;;;;;;22.73;48.70;100069.91;5134410;27;20206;-69
2022/05/12 04:16:03;;;;;;;5.83;5.33;;;;;;;23.34;47.14;100067.31;5135536;27;20317;-68
2022/05/12 04:18:30;;;;;;;39.80;17.80;;;;;;;24.00;47.89;100069.16;5135122;27;20195;-68
2022/05/12 04:20:56;;;;;;;139.20;115.00;;;;;;;25.02;45.88;100075.09;5134522;27;20230;-68
2022/05/12 04:23:23;;;;;;;57.47;39.20;;;;;;;25.88;41.03;100067.41;5134264;27;20601;-65
2022/05/12 04:25:50;;;;;;;17.77;10.67;;;;;;;26.69;37.49;100067.63;5133056;27;20190;-67
2022/05/12 04:28:16;;;;;;;29.57;23.63;;;;;;;27.27;37.43;100061.84;5134150;27;20214;-67
2022/05/12 04:30:43;;;;;;;23.47;16.13;;;;;;;27.45;36.54;100057.56;5134051;27;20254;-66
2022/05/12 04:36:01;;;;;;;8.80;4.43;;;;;;;27.72;34.30;100061.25;5095075;27;20198;-66
2022/05/12 04:38:27;;;;;;;5.87;4.63;;;;;;;28.19;34.63;100063.88;5134011;27;20182;-64
2022/05/12 04:40:54;;;;;;;22.77;5.40;;;;;;;28.62;33.15;100067.28;5134494;27;20194;-65
2022/05/12 04:43:21;;;;;;;4.57;4.07;;;;;;;29.18;32.22;100065.97;5135223;27;20190;-65
2022/05/12 04:45:47;;;;;;;7.20;3.70;;;;;;;29.43;30.39;100072.06;5134060;27;20562;-66
2022/05/12 04:48:16;;;;;;;5.33;3.50;;;;;;;30.15;30.19;100069.09;5134186;27;20294;-66
2022/05/12 04:50:42;;;;;;;5.40;3.50;;;;;;;30.24;30.22;100060.94;5134384;27;20270;-64
2022/05/12 04:53:10;;;;;;;14.50;4.30;;;;;;;30.50;28.61;100062.72;5134029;27;20344;-64
2022/05/12 04:55:38;;;;;;;18.03;4.60;;;;;;;30.49;29.49;100069.34;5133775;27;20242;-63
2022/05/12 04:58:05;;;;;;;9.43;3.03;;;;;;;30.35;29.84;100067.78;5134166;27;20197;-63
2022/05/12 05:00:35;;;;;;;4.70;3.30;;;;;;;30.70;28.55;100069.69;5133733;27;20190;-63
2022/05/12 05:03:01;;;;;;;6.53;3.70;;;;;;;31.04;28.31;100067.94;5133814;27;20197;-64
2022/05/12 05:05:30;;;;;;;6.30;3.50;;;;;;;31.03;28.27;100068.25;5126493;27;20576;-64
2022/05/12 05:07:56;;;;;;;8.67;3.67;;;;;;;30.92;28.05;100072.38;5130038;27;20267;-63
2022/05/12 05:10:24;;;;;;;6.20;3.77;;;;;;;30.73;28.03;100075.34;5113936;28;20652;-64
2022/05/12 05:12:52;;;;;;;7.40;3.67;;;;;;;30.34;29.07;100072.47;5122375;27;20189;-63
2022/05/12 05:15:19;;;;;;;3.83;3.27;;;;;;;30.29;28.48;100072.59;5133442;27;20243;-63
2022/05/12 05:17:46;;;;;;;4.33;4.03;;;;;;;30.07;29.44;100074.47;5133137;27;20582;-64
2022/05/12 05:20:16;;;;;;;4.60;3.80;;;;;;;29.23;30.45;100073.25;5133039;27;20239;-65
2022/05/12 05:22:45;;;;;;;6.30;4.13;;;;;;;29.27;30.40;100073.50;5112654;27;20633;-65
2022/05/12 05:25:13;;;;;;;3.17;2.97;;;;;;;28.92;32.46;100070.28;5112509;28;20729;-64
2022/05/12 05:27:39;;;;;;;4.10;3.70;;;;;;;29.53;30.90;100071.84;5119271;27;20239;-64
2022/05/12 05:30:10;;;;;;;10.80;3.90;;;;;;;30.23;29.57;100065.63;5124713;27;20247;-64
2022/05/12 05:32:37;;;;;;;4.60;3.73;;;;;;;30.60;29.29;100076.22;5115289;27;20579;-64
2022/05/12 05:35:04;;;;;;;6.90;4.37;;;;;;;31.07;28.65;100074.72;5117064;27;20194;-65
2022/05/12 05:37:31;;;;;;;10.93;4.00;;;;;;;31.93;27.66;100080.16;5127234;27;20194;-65
2022/05/12 05:39:59;;;;;;;12.77;4.20;;;;;;;32.39;26.99;100082.28;5113090;28;20259;-65
2022/05/12 05:42:26;;;;;;;16.70;5.10;;;;;;;31.87;27.77;100078.72;5132541;27;20250;-64
2022/05/12 05:44:52;;;;;;;5.27;3.97;;;;;;;32.39;26.73;100088.63;5128256;27;20186;-65
2022/05/12 05:47:19;;;;;;;6.10;4.70;;;;;;;32.22;26.79;100085.03;5112000;28;20227;-65
2022/05/12 05:49:46;;;;;;;8.97;4.50;;;;;;;32.38;27.07;100083.44;5124302;28;20751;-65
2022/05/12 05:54:57;;;;;;;5.83;4.57;;;;;;;32.22;27.29;100080.31;5132819;28;20191;-65
2022/05/12 05:57:30;;;;;;;4.10;3.80;;;;;;;31.61;27.24;100080.56;5132577;27;20678;-65
2022/05/12 05:59:58;;;;;;;6.40;4.23;;;;;;;31.57;27.63;100079.59;5132217;27;20186;-65
2022/05/12 06:02:25;;;;;;;9.33;4.20;;;;;;;31.29;28.58;100083.72;5131473;27;20594;-64
2022/05/12 06:04:52;;;;;;;10.10;4.10;;;;;;;30.95;28.31;100080.78;5131887;27;20198;-63
2022/05/12 06:07:19;;;;;;;7.23;4.63;;;;;;;30.62;28.59;100073.16;5116272;27;20194;-63
2022/05/12 06:09:46;;;;;;;7.03;4.40;;;;;;;30.74;29.49;100070.69;5111870;28;20191;-62
2022/05/12 06:12:13;;;;;;;8.73;4.37;;;;;;;30.78;29.39;100069.72;5111871;28;20205;-63
2022/05/12 06:14:42;;;;;;;5.10;4.67;;;;;;;30.86;29.07;100073.66;5114460;28;20625;-63
2022/05/12 06:17:09;;;;;;;4.53;4.07;;;;;;;31.10;28.70;100072.13;5119698;28;20182;-62
2022/05/12 06:19:36;;;;;;;4.70;4.20;;;;;;;31.00;29.16;100079.84;5132726;27;20190;-62
2022/05/12 06:22:03;;;;;;;6.13;4.53;;;;;;;30.87;28.96;100076.06;5132781;27;20190;-64
2022/05/12 06:24:30;;;;;;;5.70;3.90;;;;;;;30.63;29.09;100078.34;5132609;27;20190;-63
2022/05/12 06:26:57;;;;;;;9.77;4.13;;;;;;;30.67;29.18;100071.09;5128477;27;20202;-62
2022/05/12 06:29:24;;;;;;;8.17;4.73;;;;;;;30.69;29.60;100074.34;5133970;27;20266;-64
2022/05/12 06:31:52;;;;;;;14.50;4.57;;;;;;;30.96;29.24;100074.19;5136319;27;20189;-63
2022/05/12 06:34:18;;;;;;;14.27;5.50;;;;;;;30.90;29.38;100075.44;5136098;27;20274;-63
2022/05/12 06:36:45;;;;;;;5.40;5.00;;;;;;;30.64;29.59;100077.19;5135653;27;20246;-62
2022/05/12 06:39:12;;;;;;;7.73;4.70;;;;;;;30.78;30.03;100072.47;5135737;27;20615;-62
2022/05/12 06:41:39;;;;;;;4.97;4.53;;;;;;;30.82;29.33;100070.72;5130826;27;20186;-65
2022/05/12 06:44:06;;;;;;;6.03;5.43;;;;;;;30.59;30.54;100071.03;5111336;28;20210;-63
2022/05/12 06:46:33;;;;;;;6.30;3.80;;;;;;;30.49;29.75;100068.56;5114911;28;20194;-63
2022/05/12 06:49:03;;;;;;;6.33;4.43;;;;;;;30.30;30.63;100071.50;5115624;28;20696;-63
2022/05/12 06:51:30;;;;;;;11.40;4.50;;;;;;;30.48;29.92;100075.97;5116033;28;20565;-63
2022/05/12 06:53:57;;;;;;;7.27;4.27;;;;;;;30.60;30.13;100073.47;5115586;28;20247;-64
2022/05/12 06:56:24;;;;;;;5.60;4.13;;;;;;;30.67;30.12;100071.09;5115718;28;20251;-63
2022/05/12 06:58:51;;;;;;;13.97;4.40;;;;;;;30.87;30.10;100059.59;5115290;28;20199;-63
2022/05/12 07:01:18;;;;;;;3.60;3.30;;;;;;;31.11;29.57;100067.47;5115896;28;20191;-62
2022/05/12 07:03:45;;;;;;;4.87;3.63;;;;;;;31.23;29.53;100065.75;5115168;27;20247;-63
2022/05/12 07:06:13;;;;;;;9.10;3.63;;;;;;;31.40;29.16;100063.06;5115484;28;20195;-63
2022/05/12 07:08:41;;;;;;;14.43;4.53;;;;;;;31.07;29.27;100059.03;5115230;27;20214;-62
2022/05/12 07:11:08;;;;;;;18.17;4.20;;;;;;;31.15;29.45;100054.72;5115675;28;20195;-63
2022/05/12 07:13:35;;;;;;;6.00;3.73;;;;;;;31.32;29.44;100054.81;5115290;28;20584;-63
2022/05/12 07:16:04;;;;;;;6.63;4.30;;;;;;;31.18;29.24;100056.81;5116046;28;20522;-62
2022/05/12 07:18:31;;;;;;;11.37;4.03;;;;;;;31.20;30.03;100060.84;5115304;28;20190;-62
2022/05/12 07:26:40;;;;;;;10.40;3.40;;;;;;;31.49;27.54;100058.41;5126807;27;20569;-63
2022/05/12 07:29:11;;;;;;;3.37;3.07;;;;;;;31.64;28.13;100046.94;5155721;27;20261;-62
2022/05/12 07:31:39;;;;;;;6.40;3.00;;;;;;;31.74;27.99;100052.16;5115022;27;20191;-64
2022/05/12 07:34:06;;;;;;;9.70;3.73;;;;;;;31.57;27.87;100052.13;5136470;27;20233;-65
2022/05/12 07:36:35;;;;;;;11.67;3.60;;;;;;;31.42;27.22;100052.56;5155652;27;20222;-63
2022/05/12 07:39:05;;;;;;;5.13;2.60;;;;;;;31.35;28.08;100046.72;5154478;27;20249;-62
2022/05/12 07:41:32;;;;;;;61.10;5.83;;;;;;;30.43;28.58;100047.84;5139350;27;20269;-66
2022/05/12 07:43:59;;;;;;;12.87;3.90;;;;;;;30.49;28.90;100052.91;5134751;27;20558;-65
2022/05/12 07:46:28;;;;;;;6.13;2.57;;;;;;;30.72;29.13;100043.56;5148705;27;20258;-62
2022/05/12 07:48:56;;;;;;;9.87;2.80;;;;;;;31.06;28.68;100035.47;5155604;27;20229;-62
2022/05/12 07:51:25;;;;;;;29.30;4.67;;;;;;;31.36;28.74;100047.56;5155503;27;20193;-61
2022/05/12 07:53:52;;;;;;;22.87;5.03;;;;;;;31.57;29.07;100038.41;5155618;27;20246;-62
2022/05/12 07:56:23;;;;;;;7.83;3.10;;;;;;;31.85;28.52;100045.22;5155456;27;20190;-62
2022/05/12 07:58:51;;;;;;;11.50;3.33;;;;;;;32.05;28.75;100041.84;5149857;27;20198;-60
2022/05/12 08:01:18;;;;;;;8.03;3.57;;;;;;;32.15;27.31;100036.03;5134499;27;20193;-60
2022/05/12 08:03:46;;;;;;;11.90;2.97;;;;;;;31.85;29.58;100036.97;5134244;27;20193;-60
2022/05/12 08:06:15;;;;;;;5.50;3.40;;;;;;;31.41;28.59;100036.41;5134725;27;20185;-59
2022/05/12 08:08:42;;;;;;;4.47;3.00;;;;;;;31.45;28.41;100027.22;5134622;27;20714;-60
2022/05/12 08:11:10;;;;;;;8.60;2.93;;;;;;;31.54;28.91;100033.53;5134483;27;20761;-60
2022/05/12 08:13:38;;;;;;;5.07;2.80;;;;;;;31.67;30.39;100023.50;5123447;27;20280;-60
2022/05/12 08:16:06;;;;;;;12.17;4.13;;;;;;;31.65;28.81;100026.59;5133952;27;20194;-59
2022/05/12 08:18:35;;;;;;;10.60;3.43;;;;;;;31.59;28.84;100025.13;5133817;27;20205;-61
2022/05/12 08:21:02;;;;;;;4.93;3.47;;;;;;;31.62;28.02;100021.75;5134111;27;20252;-60
2022/05/12 08:23:29;;;;;;;6.37;4.10;;;;;;;31.71;28.93;100024.50;5134150;27;20225;-60
2022/05/12 08:25:55;;;;;;;7.93;3.50;;;;;;;31.41;27.71;100026.25;5133898;27;20190;-60
2022/05/12 08:28:24;;;;;;;5.90;3.33;;;;;;;31.36;29.34;100020.88;5133075;27;20716;-59
2022/05/12 08:30:53;;;;;;;5.47;3.20;;;;;;;31.31;29.68;100031.22;5134999;27;20194;-60
2022/05/12 08:33:20;;;;;;;3.43;2.93;;;;;;;31.08;29.29;100024.19;5132414;27;20198;-59
2022/05/12 08:35:47;;;;;;;3.07;2.80;;;;;;;31.26;28.49;100023.13;5134171;27;20279;-60
2022/05/12 08:38:16;;;;;;;5.87;3.27;;;;;;;31.33;28.41;100013.31;5134097;27;20247;-59
2022/05/12 08:40:53;;;;;;;8.20;3.80;;;;;;;30.96;29.42;100019.28;5133528;27;20189;-60
2022/05/12 08:43:23;;;;;;;3.93;3.60;;;;;;;31.21;30.99;100015.81;5133153;27;20190;-59
2022/05/12 08:45:50;;;;;;;6.93;3.70;;;;;;;31.34;29.32;100012.16;5141013;27;20729;-60
2022/05/12 08:48:19;;;;;;;9.27;3.67;;;;;;;31.52;28.55;100011.06;5152824;27;20311;-59
2022/05/12 08:50:51;;;;;;;20.07;4.67;;;;;;;31.50;28.59;100015.25;5132017;27;20193;-60
2022/05/12 08:53:22;;;;;;;6.03;3.13;;;;;;;31.64;28.58;100018.69;5132541;27;20190;-59
2022/05/12 08:55:53;;;;;;;3.30;2.87;;;;;;;31.74;26.97;100019.19;5134007;27;20190;-59
2022/05/12 08:58:25;;;;;;;12.47;3.70;;;;;;;31.78;28.06;100014.69;5132980;27;20193;-59
2022/05/12 09:01:00;;;;;;;4.13;3.00;;;;;;;31.51;27.10;100014.94;5133127;27;20190;-62
2022/05/12 09:03:38;;;;;;;3.67;2.70;;;;;;;31.57;26.14;99999.13;5133689;27;20272;-60
2022/05/12 09:06:10;;;;;;;3.20;2.77;;;;;;;31.60;28.07;100010.25;5133264;27;20178;-62
2022/05/12 09:08:47;;;;;;;3.30;3.00;;;;;;;31.76;27.92;100011.44;5133343;27;20245;-62
2022/05/12 09:11:21;;;;;;;3.60;2.67;;;;;;;31.94;26.95;100013.06;5133005;27;20185;-62
2022/05/12 09:13:50;;;;;;;4.07;2.80;;;;;;;31.87;28.39;100000.94;5122138;27;20194;-63
2022/05/12 09:16:20;;;;;;;4.20;2.83;;;;;;;31.97;27.57;100006.91;5133489;27;20263;-63
2022/05/12 09:18:50;;;;;;;6.20;2.83;;;;;;;32.13;26.35;100004.50;5132298;27;20712;-63
2022/05/12 09:21:21;;;;;;;2.97;2.67;;;;;;;32.14;25.48;100001.38;5132056;27;20209;-61
2022/05/12 09:23:49;;;;;;;3.60;2.57;;;;;;;31.80;26.24;100006.91;5131010;27;20186;-62
2022/05/12 09:26:34;;;;;;;5.17;3.00;;;;;;;31.96;26.62;99999.81;5131532;27;20225;-62
2022/05/12 09:29:12;;;;;;;13.23;2.80;;;;;;;32.13;27.27;100002.53;5133415;27;20294;-64
2022/05/12 09:31:41;;;;;;;4.93;2.07;;;;;;;32.05;26.44;99999.81;5131037;27;20238;-62
2022/05/12 09:34:26;;;;;;;6.23;2.93;;;;;;;31.68;26.84;100003.19;5132457;27;20198;-62
2022/05/12 09:36:53;;;;;;;5.03;2.73;;;;;;;31.61;25.32;99998.13;5132995;27;20235;-63
2022/05/12 09:39:45;;;;;;;4.93;2.90;;;;;;;31.38;26.05;99999.41;5132702;27;20233;-62
2022/05/12 09:42:36;;;;;;;4.70;2.33;;;;;;;30.95;26.33;99990.22;5113002;27;20622;-63
2022/05/12 09:45:07;;;;;;;9.20;2.50;;;;;;;31.32;25.59;99992.44;5133534;27;20261;-61
2022/05/12 09:47:35;;;;;;;10.30;3.40;;;;;;;31.24;25.83;99989.69;5138913;27;20189;-62
2022/05/12 09:50:17;;;;;;;4.80;2.53;;;;;;;31.23;25.93;99986.13;5131868;27;20225;-63
2022/05/12 09:52:46;;;;;;;6.00;2.80;;;;;;;31.54;25.16;99977.78;5133123;27;20217;-66
2022/05/12 09:55:16;;;;;;;11.53;3.10;;;;;;;31.24;25.39;99985.00;5132623;27;20186;-66
2022/05/12 09:57:50;;;;;;;9.60;2.93;;;;;;;31.34;24.57;99986.63;5129991;27;20643;-66
2022/05/12 10:00:33;;;;;;;2.93;2.43;;;;;;;31.57;24.49;99975.22;5132675;27;20193;-66
2022/05/12 10:08:45;;;;;;;5.60;2.50;;;;;;;31.66;23.89;99966.97;5135178;27;20344;-65
2022/05/12 10:11:14;;;;;;;10.93;2.73;;;;;;;31.86;23.81;99972.66;5132715;27;20251;-65
2022/05/12 10:13:47;;;;;;;15.87;3.60;;;;;;;31.89;23.33;99962.94;5136791;27;20197;-65
2022/05/12 10:16:18;;;;;;;6.73;2.30;;;;;;;31.64;24.27;99959.03;5137296;27;20186;-65
2022/05/12 10:18:48;;;;;;;2.70;2.50;;;;;;;31.09;24.96;99957.97;5136748;27;20186;-65
2022/05/12 10:21:24;;;;;;;2.63;2.20;;;;;;;31.09;24.51;99952.50;5136665;27;20189;-65
2022/05/12 10:24:03;;;;;;;6.10;2.60;;;;;;;31.34;24.92;99954.50;5136673;27;20177;-66
2022/05/12 10:26:37;;;;;;;5.67;2.67;;;;;;;31.60;24.22;99952.56;5136916;27;20186;-66
2022/05/12 10:29:18;;;;;;;5.83;2.90;;;;;;;30.93;25.27;99948.56;5137026;27;20209;-65
2022/05/12 10:31:54;;;;;;;3.53;2.10;;;;;;;31.25;25.02;99928.97;5136484;27;20186;-66
2022/05/12 10:34:36;;;;;;;4.30;2.33;;;;;;;31.80;24.47;99946.47;5136635;27;20238;-65
2022/05/12 10:37:08;;;;;;;8.43;2.70;;;;;;;31.73;23.41;99948.84;5136558;27;20258;-66
2022/05/12 10:39:44;;;;;;;2.30;1.60;;;;;;;31.85;20.98;99942.75;5137183;27;20191;-66
2022/05/12 10:42:23;;;;;;;9.10;2.57;;;;;;;31.89;22.02;99939.00;5115952;28;20186;-66
2022/05/12 10:45:10;;;;;;;6.87;3.23;;;;;;;31.46;22.12;99940.94;5115929;28;20211;-65
2022/05/12 10:48:07;;;;;;;9.83;3.07;;;;;;;31.56;22.22;99923.34;5115062;28;20216;-66
2022/05/12 10:50:40;;;;;;;6.07;2.60;;;;;;;31.37;22.88;99928.31;5115725;27;20747;-66
2022/05/12 10:53:20;;;;;;;5.47;2.60;;;;;;;30.87;23.73;99919.63;5116321;28;20178;-65
2022/05/12 10:55:54;;;;;;;8.87;2.50;;;;;;;30.67;23.88;99922.97;5115604;28;20239;-66
2022/05/12 10:58:31;;;;;;;23.07;4.30;;;;;;;31.18;23.20;99923.09;5115954;28;20239;-65
2022/05/12 11:01:09;;;;;;;5.07;2.30;;;;;;;30.95;23.00;99920.81;5115225;27;20194;-65
2022/05/12 11:03:41;;;;;;;3.97;1.80;;;;;;;30.73;23.12;99918.97;5116002;28;20185;-66
2022/05/12 11:06:11;;;;;;;5.37;2.40;;;;;;;30.94;22.16;99917.25;5115749;28;20208;-66
2022/05/12 11:08:46;;;;;;;5.80;2.10;;;;;;;31.02;21.44;99908.22;5115645;28;20214;-66
2022/05/12 11:11:17;;;;;;;4.23;2.43;;;;;;;31.20;22.49;99912.59;5115027;28;20663;-67
2022/05/12 11:13:52;;;;;;;7.53;2.93;;;;;;;31.19;21.85;99904.72;5114567;28;20193;-66
2022/05/12 11:16:24;;;;;;;3.43;2.17;;;;;;;31.40;21.39;99902.97;5114832;28;20720;-67
2022/05/12 11:18:58;;;;;;;2.73;1.87;;;;;;;31.26;21.91;99903.13;5114964;28;20644;-67
2022/05/12 11:21:29;;;;;;;3.10;2.10;;;;;;;31.57;21.90;99906.53;5114776;28;20644;-67
2022/05/12 11:24:11;;;;;;;4.53;2.00;;;;;;;31.67;21.21;99897.13;5114866;28;20183;-67
2022/05/12 11:26:56;;;;;;;2.23;2.03;;;;;;;31.71;21.78;99893.41;5114663;28;20254;-66
2022/05/12 11:29:49;;;;;;;2.10;2.00;;;;;;;31.48;21.85;99893.94;5114630;28;20699;-66
2022/05/12 11:32:46;;;;;;;8.33;1.90;;;;;;;31.51;21.46;99904.25;5114978;28;20197;-66
2022/05/12 11:35:18;;;;;;;3.87;1.90;;;;;;;31.53;20.97;99891.00;5102783;28;20195;-64
2022/05/12 11:37:56;;;;;;;1.97;1.87;;;;;;;31.30;20.75;99884.88;5114946;28;20190;-65
2022/05/12 11:40:54;;;;;;;2.60;2.10;;;;;;;31.39;20.54;99891.16;5121354;27;20193;-65
2022/05/12 11:46:37;;;;;;;6.23;3.23;;;;;;;31.26;21.03;99870.16;5134988;27;20247;-65
2022/05/12 11:49:09;;;;;;;3.97;2.40;;;;;;;31.21;21.49;99870.31;5134779;27;20609;-65
2022/05/12 11:51:45;;;;;;;2.23;1.80;;;;;;;31.21;21.14;99861.25;5134878;27;20182;-65
2022/05/12 11:54:14;;;;;;;7.30;2.20;;;;;;;30.82;20.63;99864.91;5135089;27;20624;-65
2022/05/12 11:56:49;;;;;;;11.63;2.67;;;;;;;30.89;19.17;99859.78;5134684;27;20190;-65
2022/05/12 11:59:48;;;;;;;4.77;2.20;;;;;;;31.04;19.82;99851.09;5135064;27;20567;-65
2022/05/12 12:02:39;;;;;;;2.30;2.10;;;;;;;31.19;20.23;99852.53;5134776;27;20178;-65